createdAt,value
2022-10-08T00:06:42.585Z,100597.28
2022-10-08T00:16:43.939Z,100593.59
2022-10-08T00:26:45.356Z,100596.09
2022-10-08T00:36:47.534Z,100596.97
2022-10-08T00:46:48.852Z,100588.09
2022-10-08T00:56:50.174Z,100591.00
2022-10-08T01:06:51.567Z,100582.75
2022-10-08T01:16:54.322Z,100580.81
2022-10-08T01:26:55.642Z,100580.53
2022-10-08T01:36:56.986Z,100581.09
2022-10-08T01:46:59.334Z,100584.69
2022-10-08T01:57:01.305Z,100579.94
2022-10-08T02:07:02.673Z,100581.75
2022-10-08T02:17:04.048Z,100578.75
2022-10-08T02:27:05.431Z,100587.13
2022-10-08T02:37:06.836Z,100580.41
2022-10-08T02:47:08.855Z,100593.16
2022-10-08T02:57:10.188Z,100598.34
2022-10-08T03:07:13.565Z,100617.63
2022-10-08T03:17:14.909Z,100611.88
2022-10-08T03:27:16.278Z,100615.44
2022-10-08T03:37:17.586Z,100636.19
2022-10-08T03:47:18.969Z,100641.41
2022-10-08T03:57:20.280Z,100660.84
2022-10-08T04:07:21.589Z,100667.97
2022-10-08T04:17:22.904Z,100684.00
2022-10-08T04:27:24.254Z,100693.13
2022-10-08T04:37:25.582Z,100680.53
2022-10-08T04:47:26.898Z,100681.91
2022-10-08T04:57:28.209Z,100700.72
2022-10-08T05:07:29.721Z,100705.34
2022-10-08T05:17:31.076Z,100695.09
2022-10-08T05:27:32.389Z,100708.56
2022-10-08T05:37:33.743Z,100714.91
2022-10-08T05:47:35.070Z,100723.88
2022-10-08T05:57:36.409Z,100744.06
2022-10-08T06:07:37.785Z,100757.22
2022-10-08T06:17:39.103Z,100773.00
2022-10-08T06:27:40.431Z,100787.88
2022-10-08T06:37:41.835Z,100790.34
2022-10-08T06:47:43.162Z,100807.72
2022-10-08T06:57:44.400Z,100814.59
2022-10-08T07:07:45.711Z,100820.69
2022-10-08T07:17:47.036Z,100839.81
2022-10-08T07:27:48.329Z,100848.50
2022-10-08T07:37:49.722Z,100844.69
2022-10-08T07:47:51.042Z,100864.50
2022-10-08T07:57:52.352Z,100868.13
2022-10-08T08:07:53.703Z,100882.34
2022-10-08T08:17:55.012Z,100879.28
2022-10-08T08:27:56.372Z,100887.94
2022-10-08T08:37:57.691Z,100890.94
2022-10-08T08:48:00.380Z,100889.34
2022-10-08T08:58:01.681Z,100901.81
2022-10-08T09:08:05.340Z,100903.31
2022-10-08T09:18:06.674Z,100903.31
2022-10-08T09:28:08.091Z,100915.06
2022-10-08T09:38:09.413Z,100913.16
2022-10-08T09:48:10.726Z,100918.94
2022-10-08T09:58:12.133Z,100917.50
2022-10-08T10:08:13.398Z,100922.78
2022-10-08T10:18:14.826Z,100935.06
2022-10-08T10:28:16.188Z,100928.50
2022-10-08T10:38:17.442Z,100920.66
2022-10-08T10:48:18.805Z,100921.97
2022-10-08T10:58:20.126Z,100918.00
2022-10-08T11:08:21.499Z,100916.72
2022-10-08T11:18:22.808Z,100913.72
2022-10-08T11:28:24.422Z,100910.03
2022-10-08T11:38:25.714Z,100912.66
2022-10-08T11:48:27.025Z,100913.94
2022-10-08T11:58:28.453Z,100917.34
2022-10-08T12:08:29.817Z,100909.94
2022-10-08T12:18:31.233Z,100912.91
2022-10-08T12:28:32.680Z,100914.00
2022-10-08T12:38:34.045Z,100913.94
2022-10-08T12:48:35.330Z,100917.03
2022-10-08T12:58:37.486Z,100910.16
2022-10-08T13:08:38.919Z,100906.19
2022-10-08T13:18:41.810Z,100907.78
2022-10-08T13:28:59.963Z,100919.66
2022-10-08T13:39:02.106Z,100915.69
2022-10-08T13:49:03.540Z,100912.16
2022-10-08T13:59:05.554Z,100911.84
2022-10-08T14:09:06.971Z,100907.91
2022-10-08T14:19:12.009Z,100905.72
2022-10-08T14:29:13.602Z,100911.47
2022-10-08T14:39:14.869Z,100913.28
2022-10-08T14:49:16.453Z,100905.84
2022-10-08T14:59:18.522Z,100910.94
2022-10-08T15:09:19.903Z,100916.28
2022-10-08T15:19:23.842Z,100916.22
2022-10-08T15:29:25.497Z,100913.47
2022-10-08T15:39:26.860Z,100916.16
2022-10-08T15:49:28.113Z,100928.28
2022-10-08T15:59:29.465Z,100930.91
2022-10-08T16:09:30.842Z,100935.59
2022-10-08T16:19:32.209Z,100940.28
2022-10-08T16:29:33.515Z,100950.22
2022-10-08T16:39:34.843Z,100970.22
2022-10-08T16:49:36.258Z,100984.25
2022-10-08T16:59:37.516Z,100999.72
2022-10-08T17:09:38.825Z,101011.50
2022-10-08T17:19:40.132Z,101027.63
2022-10-08T17:29:41.446Z,101040.16
2022-10-08T17:39:42.828Z,101057.44
2022-10-08T17:49:44.238Z,101075.41
2022-10-08T17:59:45.865Z,101078.34
2022-10-08T18:09:47.340Z,101084.78
2022-10-08T18:19:49.722Z,101100.91
2022-10-08T18:29:51.008Z,101108.44
2022-10-08T18:50:02.628Z,101131.59
2022-10-08T19:00:04.343Z,101140.31
2022-10-08T19:10:05.620Z,101160.69
2022-10-08T19:20:07.600Z,101162.50
2022-10-08T19:30:10.517Z,101167.81
2022-10-08T19:40:11.832Z,101181.00
2022-10-08T19:50:13.153Z,101188.03
2022-10-08T20:00:15.742Z,101195.09
2022-10-08T20:10:17.452Z,101200.38
2022-10-08T20:20:32.194Z,101208.28
2022-10-08T20:30:34.396Z,101211.72
2022-10-08T20:40:35.732Z,101221.31
2022-10-08T20:50:37.063Z,101228.31
2022-10-08T21:00:38.488Z,101242.25
2022-10-08T21:10:39.831Z,101251.78
2022-10-08T21:20:41.224Z,101251.78
2022-10-08T21:30:42.557Z,101255.22
2022-10-08T21:40:43.916Z,101263.94
2022-10-08T21:50:45.416Z,101253.50
2022-10-08T22:00:46.831Z,101260.47
2022-10-08T22:10:48.209Z,101261.28
2022-10-08T22:20:49.550Z,101264.72
2022-10-08T22:30:50.926Z,101261.22
2022-10-08T22:40:52.244Z,101251.63
2022-10-08T22:50:53.556Z,101247.25
2022-10-08T23:00:54.878Z,101256.81
2022-10-08T23:10:56.187Z,101249.84
2022-10-08T23:20:57.495Z,101248.91
2022-10-08T23:30:58.832Z,101245.41
2022-10-08T23:41:00.444Z,101253.19
2022-10-08T23:51:01.757Z,101237.47
